sensor_id;sensor_type;location;lat;lon;timestamp;P1;durP1;ratioP1;P2;durP2;ratioP2
77326;SDS011;66399;52.322;20.980;2023-04-16T00:02:52;2.50;;;1.50;;
77326;SDS011;66399;52.322;20.980;2023-04-16T00:06:57;2.50;;;1.50;;
77326;SDS011;66399;52.322;20.980;2023-04-16T00:11:02;3.50;;;2.00;;
77326;SDS011;66399;52.322;20.980;2023-04-16T00:15:08;4.40;;;1.90;;
77326;SDS011;66399;52.322;20.980;2023-04-16T00:19:14;3.40;;;1.70;;
77326;SDS011;66399;52.322;20.980;2023-04-16T00:23:19;3.60;;;1.90;;
77326;SDS011;66399;52.322;20.980;2023-04-16T00:27:24;3.90;;;1.80;;
77326;SDS011;66399;52.322;20.980;2023-04-16T00:31:30;4.00;;;2.00;;
77326;SDS011;66399;52.322;20.980;2023-04-16T00:35:35;4.60;;;2.10;;
77326;SDS011;66399;52.322;20.980;2023-04-16T00:39:40;3.10;;;1.70;;
77326;SDS011;66399;52.322;20.980;2023-04-16T00:43:46;3.30;;;1.80;;
77326;SDS011;66399;52.322;20.980;2023-04-16T00:47:51;2.80;;;1.50;;
77326;SDS011;66399;52.322;20.980;2023-04-16T00:56:00;3.60;;;1.70;;
77326;SDS011;66399;52.322;20.980;2023-04-16T01:00:07;3.60;;;1.70;;
77326;SDS011;66399;52.322;20.980;2023-04-16T01:04:12;3.90;;;2.00;;
77326;SDS011;66399;52.322;20.980;2023-04-16T01:08:19;4.00;;;2.00;;
77326;SDS011;66399;52.322;20.980;2023-04-16T01:12:24;3.20;;;2.10;;
77326;SDS011;66399;52.322;20.980;2023-04-16T01:16:31;3.60;;;2.20;;
77326;SDS011;66399;52.322;20.980;2023-04-16T01:20:36;4.20;;;2.10;;
77326;SDS011;66399;52.322;20.980;2023-04-16T01:24:41;3.00;;;1.70;;
77326;SDS011;66399;52.322;20.980;2023-04-16T01:28:46;4.20;;;2.00;;
77326;SDS011;66399;52.322;20.980;2023-04-16T01:32:52;3.40;;;1.90;;
77326;SDS011;66399;52.322;20.980;2023-04-16T01:36:57;3.80;;;2.10;;
77326;SDS011;66399;52.322;20.980;2023-04-16T01:41:02;3.50;;;1.70;;
77326;SDS011;66399;52.322;20.980;2023-04-16T01:45:08;2.90;;;1.80;;
77326;SDS011;66399;52.322;20.980;2023-04-16T01:49:13;3.30;;;2.00;;
77326;SDS011;66399;52.322;20.980;2023-04-16T01:53:19;4.10;;;2.20;;
77326;SDS011;66399;52.322;20.980;2023-04-16T01:57:24;3.80;;;1.90;;
77326;SDS011;66399;52.322;20.980;2023-04-16T02:01:29;4.10;;;2.20;;
77326;SDS011;66399;52.322;20.980;2023-04-16T02:05:35;2.70;;;1.80;;
77326;SDS011;66399;52.322;20.980;2023-04-16T02:09:40;4.60;;;2.00;;
77326;SDS011;66399;52.322;20.980;2023-04-16T02:13:46;3.40;;;1.80;;
77326;SDS011;66399;52.322;20.980;2023-04-16T02:17:51;3.70;;;2.00;;
77326;SDS011;66399;52.322;20.980;2023-04-16T02:21:59;3.90;;;2.10;;
77326;SDS011;66399;52.322;20.980;2023-04-16T02:30:09;3.30;;;2.20;;
77326;SDS011;66399;52.322;20.980;2023-04-16T02:34:15;4.40;;;2.50;;
77326;SDS011;66399;52.322;20.980;2023-04-16T02:38:20;5.00;;;2.40;;
77326;SDS011;66399;52.322;20.980;2023-04-16T02:42:25;4.80;;;2.50;;
77326;SDS011;66399;52.322;20.980;2023-04-16T02:50:36;6.30;;;2.80;;
77326;SDS011;66399;52.322;20.980;2023-04-16T02:54:41;4.50;;;2.50;;
77326;SDS011;66399;52.322;20.980;2023-04-16T02:58:46;5.30;;;2.90;;
77326;SDS011;66399;52.322;20.980;2023-04-16T03:02:51;4.20;;;2.40;;
77326;SDS011;66399;52.322;20.980;2023-04-16T03:06:57;4.70;;;2.80;;
77326;SDS011;66399;52.322;20.980;2023-04-16T03:11:02;4.40;;;2.20;;
77326;SDS011;66399;52.322;20.980;2023-04-16T03:15:08;3.60;;;1.90;;
77326;SDS011;66399;52.322;20.980;2023-04-16T03:19:13;4.30;;;1.80;;
77326;SDS011;66399;52.322;20.980;2023-04-16T03:23:19;3.80;;;2.10;;
77326;SDS011;66399;52.322;20.980;2023-04-16T03:27:24;2.90;;;1.50;;
77326;SDS011;66399;52.322;20.980;2023-04-16T03:31:29;4.10;;;2.30;;
77326;SDS011;66399;52.322;20.980;2023-04-16T03:35:35;3.70;;;2.10;;
77326;SDS011;66399;52.322;20.980;2023-04-16T03:39:40;3.20;;;2.00;;
77326;SDS011;66399;52.322;20.980;2023-04-16T03:43:45;3.30;;;1.80;;
77326;SDS011;66399;52.322;20.980;2023-04-16T03:47:51;4.90;;;2.20;;
77326;SDS011;66399;52.322;20.980;2023-04-16T03:56:00;4.40;;;2.40;;
77326;SDS011;66399;52.322;20.980;2023-04-16T04:00:06;4.40;;;2.50;;
77326;SDS011;66399;52.322;20.980;2023-04-16T04:04:11;5.30;;;2.70;;
77326;SDS011;66399;52.322;20.980;2023-04-16T04:12:20;4.30;;;2.40;;
77326;SDS011;66399;52.322;20.980;2023-04-16T04:16:26;5.60;;;2.30;;
77326;SDS011;66399;52.322;20.980;2023-04-16T04:20:31;5.00;;;2.70;;
77326;SDS011;66399;52.322;20.980;2023-04-16T04:24:36;4.30;;;2.40;;
77326;SDS011;66399;52.322;20.980;2023-04-16T04:28:42;3.60;;;2.10;;
77326;SDS011;66399;52.322;20.980;2023-04-16T04:32:47;5.10;;;2.80;;
77326;SDS011;66399;52.322;20.980;2023-04-16T04:40:56;5.10;;;3.00;;
77326;SDS011;66399;52.322;20.980;2023-04-16T04:45:01;4.70;;;2.70;;
77326;SDS011;66399;52.322;20.980;2023-04-16T04:49:06;5.40;;;3.00;;
77326;SDS011;66399;52.322;20.980;2023-04-16T04:53:12;5.60;;;3.20;;
77326;SDS011;66399;52.322;20.980;2023-04-16T04:57:17;5.70;;;2.90;;
77326;SDS011;66399;52.322;20.980;2023-04-16T05:01:23;6.10;;;3.40;;
77326;SDS011;66399;52.322;20.980;2023-04-16T05:09:32;5.60;;;3.20;;
77326;SDS011;66399;52.322;20.980;2023-04-16T05:13:38;5.10;;;2.80;;
77326;SDS011;66399;52.322;20.980;2023-04-16T05:17:43;7.20;;;3.50;;
77326;SDS011;66399;52.322;20.980;2023-04-16T05:21:49;4.20;;;2.30;;
77326;SDS011;66399;52.322;20.980;2023-04-16T05:25:54;6.40;;;3.50;;
77326;SDS011;66399;52.322;20.980;2023-04-16T05:29:59;6.00;;;3.60;;
77326;SDS011;66399;52.322;20.980;2023-04-16T05:34:05;6.10;;;3.40;;
77326;SDS011;66399;52.322;20.980;2023-04-16T05:38:10;5.90;;;3.00;;
77326;SDS011;66399;52.322;20.980;2023-04-16T05:42:15;4.30;;;2.50;;
77326;SDS011;66399;52.322;20.980;2023-04-16T05:46:20;5.80;;;3.40;;
77326;SDS011;66399;52.322;20.980;2023-04-16T05:50:27;5.20;;;2.90;;
77326;SDS011;66399;52.322;20.980;2023-04-16T05:54:33;4.80;;;3.20;;
77326;SDS011;66399;52.322;20.980;2023-04-16T05:58:39;5.10;;;3.10;;
77326;SDS011;66399;52.322;20.980;2023-04-16T06:02:44;6.50;;;3.70;;
77326;SDS011;66399;52.322;20.980;2023-04-16T06:06:51;5.90;;;3.40;;
77326;SDS011;66399;52.322;20.980;2023-04-16T06:10:56;6.20;;;3.80;;
77326;SDS011;66399;52.322;20.980;2023-04-16T06:15:02;6.80;;;4.00;;
77326;SDS011;66399;52.322;20.980;2023-04-16T06:19:07;5.30;;;3.00;;
77326;SDS011;66399;52.322;20.980;2023-04-16T06:23:13;5.70;;;3.70;;
77326;SDS011;66399;52.322;20.980;2023-04-16T06:27:19;5.70;;;3.40;;
77326;SDS011;66399;52.322;20.980;2023-04-16T06:31:24;6.10;;;3.90;;
77326;SDS011;66399;52.322;20.980;2023-04-16T06:35:31;7.30;;;3.30;;
77326;SDS011;66399;52.322;20.980;2023-04-16T06:43:40;4.80;;;2.80;;
77326;SDS011;66399;52.322;20.980;2023-04-16T06:51:50;5.80;;;3.60;;
77326;SDS011;66399;52.322;20.980;2023-04-16T06:59:59;5.20;;;3.30;;
77326;SDS011;66399;52.322;20.980;2023-04-16T07:08:09;5.90;;;3.30;;
77326;SDS011;66399;52.322;20.980;2023-04-16T07:12:14;5.40;;;3.10;;
77326;SDS011;66399;52.322;20.980;2023-04-16T07:24:27;4.80;;;2.80;;
77326;SDS011;66399;52.322;20.980;2023-04-16T07:32:36;4.90;;;2.70;;
77326;SDS011;66399;52.322;20.980;2023-04-16T07:36:41;4.60;;;2.60;;
77326;SDS011;66399;52.322;20.980;2023-04-16T07:44:50;3.50;;;2.20;;
77326;SDS011;66399;52.322;20.980;2023-04-16T07:48:56;4.70;;;2.80;;
77326;SDS011;66399;52.322;20.980;2023-04-16T07:53:01;4.60;;;2.60;;
77326;SDS011;66399;52.322;20.980;2023-04-16T07:57:06;3.50;;;2.60;;
77326;SDS011;66399;52.322;20.980;2023-04-16T08:01:12;4.70;;;2.70;;
77326;SDS011;66399;52.322;20.980;2023-04-16T08:05:17;5.00;;;2.90;;
77326;SDS011;66399;52.322;20.980;2023-04-16T08:09:25;5.10;;;2.80;;
77326;SDS011;66399;52.322;20.980;2023-04-16T08:13:30;4.50;;;2.80;;
77326;SDS011;66399;52.322;20.980;2023-04-16T08:17:37;4.90;;;2.60;;
77326;SDS011;66399;52.322;20.980;2023-04-16T08:21:42;5.40;;;2.60;;
77326;SDS011;66399;52.322;20.980;2023-04-16T08:25:47;4.70;;;2.90;;
77326;SDS011;66399;52.322;20.980;2023-04-16T08:29:55;6.30;;;3.30;;
77326;SDS011;66399;52.322;20.980;2023-04-16T08:34:01;5.40;;;3.20;;
77326;SDS011;66399;52.322;20.980;2023-04-16T08:38:06;5.20;;;3.10;;
77326;SDS011;66399;52.322;20.980;2023-04-16T08:42:12;4.50;;;2.70;;
77326;SDS011;66399;52.322;20.980;2023-04-16T08:46:18;5.80;;;3.10;;
77326;SDS011;66399;52.322;20.980;2023-04-16T08:50:25;5.40;;;3.10;;
77326;SDS011;66399;52.322;20.980;2023-04-16T08:54:33;4.60;;;3.00;;
77326;SDS011;66399;52.322;20.980;2023-04-16T08:58:41;4.70;;;3.30;;
77326;SDS011;66399;52.322;20.980;2023-04-16T09:02:47;5.60;;;3.60;;
77326;SDS011;66399;52.322;20.980;2023-04-16T09:06:53;5.50;;;3.60;;
77326;SDS011;66399;52.322;20.980;2023-04-16T09:10:59;6.60;;;3.60;;
77326;SDS011;66399;52.322;20.980;2023-04-16T09:15:05;6.60;;;3.40;;
77326;SDS011;66399;52.322;20.980;2023-04-16T09:19:10;6.60;;;4.20;;
77326;SDS011;66399;52.322;20.980;2023-04-16T09:23:16;3.50;;;2.50;;
77326;SDS011;66399;52.322;20.980;2023-04-16T09:27:21;6.10;;;3.80;;
77326;SDS011;66399;52.322;20.980;2023-04-16T09:31:28;5.40;;;3.40;;
77326;SDS011;66399;52.322;20.980;2023-04-16T09:35:34;5.20;;;3.40;;
77326;SDS011;66399;52.322;20.980;2023-04-16T09:39:53;6.90;;;3.90;;
77326;SDS011;66399;52.322;20.980;2023-04-16T09:43:59;5.70;;;3.60;;
77326;SDS011;66399;52.322;20.980;2023-04-16T09:48:05;5.20;;;3.50;;
77326;SDS011;66399;52.322;20.980;2023-04-16T09:52:12;5.70;;;3.60;;
77326;SDS011;66399;52.322;20.980;2023-04-16T09:56:18;5.20;;;3.40;;
77326;SDS011;66399;52.322;20.980;2023-04-16T10:00:27;5.50;;;3.50;;
77326;SDS011;66399;52.322;20.980;2023-04-16T10:04:37;6.60;;;3.70;;
77326;SDS011;66399;52.322;20.980;2023-04-16T10:08:49;5.10;;;3.60;;
77326;SDS011;66399;52.322;20.980;2023-04-16T10:12:54;8.20;;;4.10;;
77326;SDS011;66399;52.322;20.980;2023-04-16T10:17:00;5.20;;;3.50;;
77326;SDS011;66399;52.322;20.980;2023-04-16T10:21:07;7.00;;;3.90;;
77326;SDS011;66399;52.322;20.980;2023-04-16T10:25:14;5.90;;;3.80;;
77326;SDS011;66399;52.322;20.980;2023-04-16T10:29:20;6.60;;;4.00;;
77326;SDS011;66399;52.322;20.980;2023-04-16T10:33:26;5.20;;;3.40;;
77326;SDS011;66399;52.322;20.980;2023-04-16T10:37:32;4.60;;;3.20;;
77326;SDS011;66399;52.322;20.980;2023-04-16T10:41:37;5.50;;;3.50;;
77326;SDS011;66399;52.322;20.980;2023-04-16T10:45:43;6.30;;;3.30;;
77326;SDS011;66399;52.322;20.980;2023-04-16T10:49:48;7.10;;;4.10;;
77326;SDS011;66399;52.322;20.980;2023-04-16T10:53:54;7.10;;;4.80;;
77326;SDS011;66399;52.322;20.980;2023-04-16T10:57:59;5.20;;;3.30;;
77326;SDS011;66399;52.322;20.980;2023-04-16T11:02:07;6.00;;;4.20;;
77326;SDS011;66399;52.322;20.980;2023-04-16T11:06:14;5.80;;;4.00;;
77326;SDS011;66399;52.322;20.980;2023-04-16T11:10:22;5.80;;;4.00;;
77326;SDS011;66399;52.322;20.980;2023-04-16T11:14:29;5.00;;;3.80;;
77326;SDS011;66399;52.322;20.980;2023-04-16T11:18:34;6.00;;;3.80;;
77326;SDS011;66399;52.322;20.980;2023-04-16T11:22:46;7.30;;;4.40;;
77326;SDS011;66399;52.322;20.980;2023-04-16T11:26:51;6.60;;;4.00;;
77326;SDS011;66399;52.322;20.980;2023-04-16T11:30:56;5.30;;;4.00;;
77326;SDS011;66399;52.322;20.980;2023-04-16T11:35:03;6.80;;;4.40;;
77326;SDS011;66399;52.322;20.980;2023-04-16T11:39:08;6.10;;;3.90;;
77326;SDS011;66399;52.322;20.980;2023-04-16T11:43:14;6.30;;;4.50;;
77326;SDS011;66399;52.322;20.980;2023-04-16T11:47:20;6.20;;;4.00;;
77326;SDS011;66399;52.322;20.980;2023-04-16T11:51:26;5.10;;;3.50;;
77326;SDS011;66399;52.322;20.980;2023-04-16T11:55:31;5.40;;;3.70;;
77326;SDS011;66399;52.322;20.980;2023-04-16T11:59:47;6.90;;;4.70;;
77326;SDS011;66399;52.322;20.980;2023-04-16T12:04:06;5.30;;;3.60;;
77326;SDS011;66399;52.322;20.980;2023-04-16T12:08:12;5.60;;;4.00;;
77326;SDS011;66399;52.322;20.980;2023-04-16T12:12:32;6.00;;;3.90;;
77326;SDS011;66399;52.322;20.980;2023-04-16T12:16:38;6.30;;;4.10;;
77326;SDS011;66399;52.322;20.980;2023-04-16T12:20:43;5.70;;;4.10;;
77326;SDS011;66399;52.322;20.980;2023-04-16T12:24:49;7.20;;;5.20;;
77326;SDS011;66399;52.322;20.980;2023-04-16T12:33:19;6.10;;;3.70;;
77326;SDS011;66399;52.322;20.980;2023-04-16T12:37:24;5.40;;;3.90;;
77326;SDS011;66399;52.322;20.980;2023-04-16T12:41:29;5.60;;;3.80;;
77326;SDS011;66399;52.322;20.980;2023-04-16T12:45:34;5.70;;;4.00;;
77326;SDS011;66399;52.322;20.980;2023-04-16T12:49:40;4.70;;;3.50;;
77326;SDS011;66399;52.322;20.980;2023-04-16T12:53:45;5.20;;;3.60;;
77326;SDS011;66399;52.322;20.980;2023-04-16T12:57:50;6.20;;;4.30;;
77326;SDS011;66399;52.322;20.980;2023-04-16T13:01:56;8.40;;;5.30;;
77326;SDS011;66399;52.322;20.980;2023-04-16T13:06:01;5.30;;;3.60;;
77326;SDS011;66399;52.322;20.980;2023-04-16T13:10:07;5.30;;;3.70;;
77326;SDS011;66399;52.322;20.980;2023-04-16T13:14:13;5.20;;;4.00;;
77326;SDS011;66399;52.322;20.980;2023-04-16T13:18:18;6.30;;;4.20;;
77326;SDS011;66399;52.322;20.980;2023-04-16T13:22:23;6.10;;;4.30;;
77326;SDS011;66399;52.322;20.980;2023-04-16T13:26:29;5.60;;;3.70;;
77326;SDS011;66399;52.322;20.980;2023-04-16T13:30:34;7.40;;;4.10;;
77326;SDS011;66399;52.322;20.980;2023-04-16T13:34:39;4.70;;;3.50;;
77326;SDS011;66399;52.322;20.980;2023-04-16T13:38:45;6.10;;;4.40;;
77326;SDS011;66399;52.322;20.980;2023-04-16T13:42:50;5.60;;;4.00;;
77326;SDS011;66399;52.322;20.980;2023-04-16T13:46:55;10.90;;;8.20;;
77326;SDS011;66399;52.322;20.980;2023-04-16T13:51:01;4.80;;;3.70;;
77326;SDS011;66399;52.322;20.980;2023-04-16T13:55:07;5.30;;;3.90;;
77326;SDS011;66399;52.322;20.980;2023-04-16T13:59:12;5.40;;;3.80;;
77326;SDS011;66399;52.322;20.980;2023-04-16T14:03:19;5.30;;;3.80;;
77326;SDS011;66399;52.322;20.980;2023-04-16T14:07:24;6.50;;;4.30;;
77326;SDS011;66399;52.322;20.980;2023-04-16T14:11:30;5.30;;;3.90;;
77326;SDS011;66399;52.322;20.980;2023-04-16T14:15:35;5.00;;;3.50;;
77326;SDS011;66399;52.322;20.980;2023-04-16T14:19:41;6.10;;;4.00;;
77326;SDS011;66399;52.322;20.980;2023-04-16T14:23:46;6.30;;;3.70;;
77326;SDS011;66399;52.322;20.980;2023-04-16T14:27:51;6.90;;;4.20;;
77326;SDS011;66399;52.322;20.980;2023-04-16T14:31:57;5.40;;;3.70;;
77326;SDS011;66399;52.322;20.980;2023-04-16T14:36:02;5.10;;;3.80;;
77326;SDS011;66399;52.322;20.980;2023-04-16T14:40:08;4.00;;;2.70;;
77326;SDS011;66399;52.322;20.980;2023-04-16T14:44:15;5.60;;;4.00;;
77326;SDS011;66399;52.322;20.980;2023-04-16T14:48:20;5.50;;;3.70;;
77326;SDS011;66399;52.322;20.980;2023-04-16T14:52:25;4.40;;;2.70;;
77326;SDS011;66399;52.322;20.980;2023-04-16T14:56:31;5.90;;;3.60;;
77326;SDS011;66399;52.322;20.980;2023-04-16T15:00:36;5.60;;;3.60;;
77326;SDS011;66399;52.322;20.980;2023-04-16T15:04:41;5.30;;;3.50;;
77326;SDS011;66399;52.322;20.980;2023-04-16T15:08:47;5.00;;;3.70;;
77326;SDS011;66399;52.322;20.980;2023-04-16T15:12:52;5.50;;;4.10;;
77326;SDS011;66399;52.322;20.980;2023-04-16T15:16:57;5.10;;;3.90;;
77326;SDS011;66399;52.322;20.980;2023-04-16T15:21:03;5.90;;;3.90;;
77326;SDS011;66399;52.322;20.980;2023-04-16T15:25:08;4.70;;;3.60;;
77326;SDS011;66399;52.322;20.980;2023-04-16T15:29:14;5.00;;;3.70;;
77326;SDS011;66399;52.322;20.980;2023-04-16T15:33:20;6.10;;;3.80;;
77326;SDS011;66399;52.322;20.980;2023-04-16T15:37:25;6.80;;;4.00;;
77326;SDS011;66399;52.322;20.980;2023-04-16T15:41:31;5.70;;;4.00;;
77326;SDS011;66399;52.322;20.980;2023-04-16T15:45:39;5.60;;;4.10;;
77326;SDS011;66399;52.322;20.980;2023-04-16T15:49:45;5.60;;;3.70;;
77326;SDS011;66399;52.322;20.980;2023-04-16T15:53:50;5.20;;;3.90;;
77326;SDS011;66399;52.322;20.980;2023-04-16T15:57:56;5.70;;;3.60;;
77326;SDS011;66399;52.322;20.980;2023-04-16T16:02:01;6.80;;;4.40;;
77326;SDS011;66399;52.322;20.980;2023-04-16T16:06:07;4.60;;;3.30;;
77326;SDS011;66399;52.322;20.980;2023-04-16T16:10:12;4.70;;;3.40;;
77326;SDS011;66399;52.322;20.980;2023-04-16T16:14:17;6.00;;;3.80;;
77326;SDS011;66399;52.322;20.980;2023-04-16T16:18:23;5.80;;;3.80;;
77326;SDS011;66399;52.322;20.980;2023-04-16T16:22:28;6.00;;;4.00;;
77326;SDS011;66399;52.322;20.980;2023-04-16T16:26:33;6.60;;;4.00;;
77326;SDS011;66399;52.322;20.980;2023-04-16T16:30:39;7.60;;;4.00;;
77326;SDS011;66399;52.322;20.980;2023-04-16T16:34:44;7.90;;;4.40;;
77326;SDS011;66399;52.322;20.980;2023-04-16T16:38:49;5.90;;;3.40;;
77326;SDS011;66399;52.322;20.980;2023-04-16T16:42:55;6.70;;;4.20;;
77326;SDS011;66399;52.322;20.980;2023-04-16T16:47:03;6.30;;;4.40;;
77326;SDS011;66399;52.322;20.980;2023-04-16T16:51:09;5.80;;;4.00;;
77326;SDS011;66399;52.322;20.980;2023-04-16T16:55:15;5.90;;;3.70;;
77326;SDS011;66399;52.322;20.980;2023-04-16T16:59:27;7.20;;;4.30;;
77326;SDS011;66399;52.322;20.980;2023-04-16T17:03:33;6.40;;;4.10;;
77326;SDS011;66399;52.322;20.980;2023-04-16T17:07:43;4.10;;;2.70;;
77326;SDS011;66399;52.322;20.980;2023-04-16T17:11:49;6.60;;;4.60;;
77326;SDS011;66399;52.322;20.980;2023-04-16T17:15:54;7.20;;;4.60;;
77326;SDS011;66399;52.322;20.980;2023-04-16T17:19:59;6.50;;;4.00;;
77326;SDS011;66399;52.322;20.980;2023-04-16T17:24:08;4.90;;;3.30;;
77326;SDS011;66399;52.322;20.980;2023-04-16T17:28:13;6.40;;;4.00;;
77326;SDS011;66399;52.322;20.980;2023-04-16T17:32:18;6.60;;;4.10;;
77326;SDS011;66399;52.322;20.980;2023-04-16T17:36:24;8.90;;;5.50;;
77326;SDS011;66399;52.322;20.980;2023-04-16T17:40:29;7.00;;;4.30;;
77326;SDS011;66399;52.322;20.980;2023-04-16T17:44:35;7.10;;;4.10;;
77326;SDS011;66399;52.322;20.980;2023-04-16T17:48:40;8.30;;;4.30;;
77326;SDS011;66399;52.322;20.980;2023-04-16T17:52:46;5.60;;;3.60;;
77326;SDS011;66399;52.322;20.980;2023-04-16T17:56:52;9.00;;;5.20;;
77326;SDS011;66399;52.322;20.980;2023-04-16T18:00:57;8.00;;;4.50;;
77326;SDS011;66399;52.322;20.980;2023-04-16T18:05:02;7.60;;;4.50;;
77326;SDS011;66399;52.322;20.980;2023-04-16T18:09:08;7.00;;;4.30;;
77326;SDS011;66399;52.322;20.980;2023-04-16T18:13:13;7.30;;;4.30;;
77326;SDS011;66399;52.322;20.980;2023-04-16T18:17:18;7.60;;;4.70;;
77326;SDS011;66399;52.322;20.980;2023-04-16T18:21:25;7.00;;;3.80;;
77326;SDS011;66399;52.322;20.980;2023-04-16T18:25:32;10.20;;;5.10;;
77326;SDS011;66399;52.322;20.980;2023-04-16T18:29:42;8.30;;;4.70;;
77326;SDS011;66399;52.322;20.980;2023-04-16T18:33:48;7.60;;;4.70;;
77326;SDS011;66399;52.322;20.980;2023-04-16T18:38:01;7.30;;;3.90;;
77326;SDS011;66399;52.322;20.980;2023-04-16T18:42:06;7.70;;;4.30;;
77326;SDS011;66399;52.322;20.980;2023-04-16T18:46:11;7.20;;;3.90;;
77326;SDS011;66399;52.322;20.980;2023-04-16T18:54:20;7.10;;;3.80;;
77326;SDS011;66399;52.322;20.980;2023-04-16T18:58:25;6.80;;;4.00;;
77326;SDS011;66399;52.322;20.980;2023-04-16T19:02:31;8.20;;;4.10;;
77326;SDS011;66399;52.322;20.980;2023-04-16T19:06:36;7.30;;;4.30;;
77326;SDS011;66399;52.322;20.980;2023-04-16T19:10:44;7.20;;;3.80;;
77326;SDS011;66399;52.322;20.980;2023-04-16T19:14:50;8.20;;;4.80;;
77326;SDS011;66399;52.322;20.980;2023-04-16T19:18:55;7.40;;;4.80;;
77326;SDS011;66399;52.322;20.980;2023-04-16T19:23:00;8.60;;;4.80;;
77326;SDS011;66399;52.322;20.980;2023-04-16T19:27:08;8.30;;;4.60;;
77326;SDS011;66399;52.322;20.980;2023-04-16T19:31:13;8.80;;;4.00;;
77326;SDS011;66399;52.322;20.980;2023-04-16T19:39:24;10.00;;;4.20;;
77326;SDS011;66399;52.322;20.980;2023-04-16T19:43:29;9.00;;;5.00;;
77326;SDS011;66399;52.322;20.980;2023-04-16T19:47:34;8.80;;;4.90;;
77326;SDS011;66399;52.322;20.980;2023-04-16T19:55:44;7.60;;;4.40;;
77326;SDS011;66399;52.322;20.980;2023-04-16T20:03:53;9.00;;;4.70;;
77326;SDS011;66399;52.322;20.980;2023-04-16T20:07:58;8.00;;;4.60;;
77326;SDS011;66399;52.322;20.980;2023-04-16T20:12:04;9.80;;;5.10;;
77326;SDS011;66399;52.322;20.980;2023-04-16T20:16:09;9.50;;;4.80;;
77326;SDS011;66399;52.322;20.980;2023-04-16T20:20:16;8.70;;;5.40;;
77326;SDS011;66399;52.322;20.980;2023-04-16T20:24:21;9.90;;;4.80;;
77326;SDS011;66399;52.322;20.980;2023-04-16T20:28:27;8.60;;;4.70;;
77326;SDS011;66399;52.322;20.980;2023-04-16T20:32:33;7.90;;;3.60;;
77326;SDS011;66399;52.322;20.980;2023-04-16T20:36:38;8.90;;;5.00;;
77326;SDS011;66399;52.322;20.980;2023-04-16T20:40:44;10.80;;;5.30;;
77326;SDS011;66399;52.322;20.980;2023-04-16T20:44:50;7.70;;;4.30;;
77326;SDS011;66399;52.322;20.980;2023-04-16T20:48:59;9.20;;;4.70;;
77326;SDS011;66399;52.322;20.980;2023-04-16T20:53:05;9.80;;;5.20;;
77326;SDS011;66399;52.322;20.980;2023-04-16T20:57:10;9.90;;;4.60;;
77326;SDS011;66399;52.322;20.980;2023-04-16T21:01:15;9.80;;;4.70;;
77326;SDS011;66399;52.322;20.980;2023-04-16T21:09:26;9.70;;;5.00;;
77326;SDS011;66399;52.322;20.980;2023-04-16T21:13:32;11.20;;;5.50;;
77326;SDS011;66399;52.322;20.980;2023-04-16T21:17:37;10.70;;;5.70;;
77326;SDS011;66399;52.322;20.980;2023-04-16T21:21:42;11.40;;;5.60;;
77326;SDS011;66399;52.322;20.980;2023-04-16T21:25:47;10.20;;;4.70;;
77326;SDS011;66399;52.322;20.980;2023-04-16T21:29:53;8.80;;;4.80;;
77326;SDS011;66399;52.322;20.980;2023-04-16T21:33:58;8.90;;;4.50;;
77326;SDS011;66399;52.322;20.980;2023-04-16T21:38:03;10.30;;;5.60;;
77326;SDS011;66399;52.322;20.980;2023-04-16T21:42:09;9.60;;;5.50;;
77326;SDS011;66399;52.322;20.980;2023-04-16T21:46:14;11.10;;;5.40;;
77326;SDS011;66399;52.322;20.980;2023-04-16T21:50:19;9.60;;;5.00;;
77326;SDS011;66399;52.322;20.980;2023-04-16T21:54:24;10.60;;;5.70;;
77326;SDS011;66399;52.322;20.980;2023-04-16T21:58:30;11.60;;;5.80;;
77326;SDS011;66399;52.322;20.980;2023-04-16T22:02:35;10.50;;;5.90;;
77326;SDS011;66399;52.322;20.980;2023-04-16T22:06:40;11.50;;;5.40;;
77326;SDS011;66399;52.322;20.980;2023-04-16T22:10:46;10.70;;;5.50;;
77326;SDS011;66399;52.322;20.980;2023-04-16T22:14:51;9.20;;;5.20;;
77326;SDS011;66399;52.322;20.980;2023-04-16T22:19:05;11.00;;;5.80;;
77326;SDS011;66399;52.322;20.980;2023-04-16T22:27:15;9.60;;;4.80;;
77326;SDS011;66399;52.322;20.980;2023-04-16T22:31:20;11.60;;;5.10;;
77326;SDS011;66399;52.322;20.980;2023-04-16T22:35:25;9.60;;;5.00;;
77326;SDS011;66399;52.322;20.980;2023-04-16T22:39:30;8.90;;;4.70;;
77326;SDS011;66399;52.322;20.980;2023-04-16T22:43:36;9.20;;;5.20;;
77326;SDS011;66399;52.322;20.980;2023-04-16T22:47:41;8.80;;;5.00;;
77326;SDS011;66399;52.322;20.980;2023-04-16T22:55:50;10.60;;;5.40;;
77326;SDS011;66399;52.322;20.980;2023-04-16T22:59:56;10.10;;;5.50;;
77326;SDS011;66399;52.322;20.980;2023-04-16T23:04:01;10.30;;;5.50;;
77326;SDS011;66399;52.322;20.980;2023-04-16T23:08:06;10.70;;;5.70;;
77326;SDS011;66399;52.322;20.980;2023-04-16T23:12:12;9.50;;;5.00;;
77326;SDS011;66399;52.322;20.980;2023-04-16T23:16:17;10.80;;;5.50;;
77326;SDS011;66399;52.322;20.980;2023-04-16T23:20:22;12.60;;;6.00;;
77326;SDS011;66399;52.322;20.980;2023-04-16T23:24:28;10.00;;;4.90;;
77326;SDS011;66399;52.322;20.980;2023-04-16T23:28:36;11.60;;;5.30;;
77326;SDS011;66399;52.322;20.980;2023-04-16T23:32:41;9.40;;;4.90;;
77326;SDS011;66399;52.322;20.980;2023-04-16T23:36:46;8.80;;;4.80;;
77326;SDS011;66399;52.322;20.980;2023-04-16T23:40:51;9.10;;;5.00;;
77326;SDS011;66399;52.322;20.980;2023-04-16T23:44:57;9.00;;;4.80;;
77326;SDS011;66399;52.322;20.980;2023-04-16T23:53:06;7.80;;;4.70;;
77326;SDS011;66399;52.322;20.980;2023-04-16T23:57:11;11.00;;;5.40;;
